Погода Зарецкиена неделю

Витебская область, Белоруссия

24 - 30 мая
  • 24мая
    Сегодня
    +11°
    +25°
    Ясно и безоблачно
    ВремяПогодаТемператураВлажностьДавлениеВетер, м/сВероятность осадков
    00:00Практически безоблачно+16°C78 %755 мм1.6 м/с2 %
    03:00Ясно и безоблачно+14°C63 %756 мм1.6 м/с2 %
    06:00Практически безоблачно+13°C67 %757 мм1.6 м/с2 %
    09:00Ясно и безоблачно+17°C60 %757 мм2.6 м/с2 %
    12:00Ясно и безоблачно+22°C48 %758 мм3.5 м/с2 %
    15:00Ясно и безоблачно+24°C43 %757 мм3.5 м/с2 %
    18:00Ясно и безоблачно+23°C45 %756 мм3.0 м/с2 %
    21:00Ясно и безоблачно+20°C61 %756 мм2.2 м/с2 %
  • 25мая
    Суббота
    +10°
    +26°
    Небольшая облачность
    ВремяПогодаТемператураВлажностьДавлениеВетер, м/сВероятность осадков
    00:00Ясно и безоблачно+15°C61 %757 мм1.6 м/с2 %
    03:00Ясно и безоблачно+13°C68 %757 мм1.3 м/с2 %
    06:00Ясно и безоблачно+13°C70 %757 мм1.2 м/с2 %
    09:00Ясно и безоблачно+18°C63 %756 мм1.8 м/с2 %
    12:00Практически безоблачно+24°C51 %756 мм2.8 м/с2 %
    15:00Небольшая облачность+25°C43 %756 мм2.7 м/с9 %
    18:00Небольшая облачность, возможен дождь с грозой+25°C48 %755 мм2.3 м/с40 %
    21:00Облачно с прояснениями+21°C74 %755 мм1.1 м/с10 %
  • 26мая
    Воскресенье
    +12°
    +26°
    Практически безоблачно
    ВремяПогодаТемператураВлажностьДавлениеВетер, м/сВероятность осадков
    00:00Ясно и безоблачно+15°C90 %755 мм1.0 м/с1 %
    03:00Ясно и безоблачно+13°C85 %755 мм0.7 м/с2 %
    06:00Ясно и безоблачно+13°C86 %755 мм0.5 м/с2 %
    09:00Ясно и безоблачно+19°C59 %756 мм0.7 м/с2 %
    12:00Ясно и безоблачно+24°C42 %756 мм1.6 м/с2 %
    15:00Практически безоблачно+25°C39 %756 мм1.4 м/с2 %
    18:00Небольшая облачность+25°C41 %755 мм1.6 м/с2 %
    21:00Ясно и безоблачно+21°C66 %755 мм0.5 м/с2 %
  • 27мая
    Понедельник
    +14°
    +26°
    Ясно и безоблачно
    ВремяПогодаТемператураВлажностьДавлениеВетер, м/сВероятность осадков
    00:00Ясно и безоблачно+15°C64 %755 мм0.4 м/с2 %
    03:00Ясно и безоблачно+13°C81 %755 мм0.2 м/с2 %
    06:00Ясно и безоблачно+14°C86 %756 мм0.0 м/с2 %
    09:00Практически безоблачно+20°C71 %756 мм0.8 м/с2 %
    12:00Практически безоблачно+24°C49 %756 мм1.9 м/с7 %
    15:00Ясно и безоблачно+25°C46 %756 мм1.7 м/с11 %
    18:00Практически безоблачно+25°C49 %755 мм1.9 м/с16 %
    21:00Ясно и безоблачно+21°C77 %755 мм1.1 м/с8 %
Мы используем cookies
Соглашаюсь